Time;durP1;ratioP1;P1;durP2;ratioP2;P2;SDS_P1;SDS_P2;PMS_P1;PMS_P2;Temp;Humidity;BMP_temperature;BMP_pressure;BME280_temperature;BME280_humidity;BME280_pressure;Samples;Min_cycle;Max_cycle;Signal;HPM_P1;HPM_P2
2022/06/14 00:01:52;;;;;;;1.40;0.90;;;;;23.30;101262.00;;;;2078145;28;20213;-55
2022/06/14 00:02:53;;;;;;;1.33;0.73;;;;;23.30;101270.00;;;;2078617;28;21028;-55
2022/06/14 00:03:53;;;;;;;1.50;1.00;;;;;23.30;101261.00;;;;2078235;28;20210;-57
2022/06/14 00:04:54;;;;;;;1.40;0.80;;;;;23.30;101270.00;;;;2077985;28;20222;-57
2022/06/14 00:05:55;;;;;;;1.73;0.87;;;;;23.30;101279.00;;;;2077385;28;20213;-57
2022/06/14 00:06:56;;;;;;;1.38;0.70;;;;;23.30;101265.00;;;;2078485;28;20621;-57
2022/06/14 00:07:56;;;;;;;1.50;1.00;;;;;23.30;101273.00;;;;2078389;28;20352;-58
2022/06/14 00:08:57;;;;;;;1.83;0.90;;;;;23.30;101272.00;;;;2072755;28;20583;-58
2022/06/14 00:09:57;;;;;;;1.53;1.07;;;;;23.30;101274.00;;;;2077923;28;20242;-56
2022/06/14 00:10:58;;;;;;;1.10;0.70;;;;;23.30;101265.00;;;;2077857;28;20241;-56
2022/06/14 00:12:00;;;;;;;1.40;0.70;;;;;23.30;101259.00;;;;2077538;28;20225;-57
2022/06/14 00:13:00;;;;;;;1.58;0.77;;;;;23.30;101261.00;;;;2077958;28;20264;-56
2022/06/14 00:14:01;;;;;;;2.23;0.80;;;;;23.30;101257.00;;;;2077748;28;20243;-57
2022/06/14 00:15:02;;;;;;;1.33;0.90;;;;;23.30;101259.00;;;;2069339;28;20349;-57
2022/06/14 00:16:02;;;;;;;1.57;1.00;;;;;23.30;101261.00;;;;2069077;28;20241;-57
2022/06/14 00:17:03;;;;;;;1.73;0.93;;;;;23.30;101270.00;;;;2076701;28;20366;-58
2022/06/14 00:18:03;;;;;;;4.90;0.90;;;;;23.30;101264.00;;;;2078478;28;20222;-57
2022/06/14 00:19:06;;;;;;;1.70;0.90;;;;;23.30;101266.00;;;;2077944;28;20221;-57
2022/06/14 00:20:07;;;;;;;1.88;1.00;;;;;23.30;101262.00;;;;2077891;28;20241;-57
2022/06/14 00:21:08;;;;;;;1.67;0.80;;;;;23.30;101261.00;;;;2078517;28;20271;-55
2022/06/14 00:22:08;;;;;;;1.10;0.60;;;;;23.30;101264.00;;;;2077965;28;20460;-57
2022/06/14 00:23:08;;;;;;;1.13;0.80;;;;;23.30;101263.00;;;;2078294;28;20222;-57
2022/06/14 00:24:09;;;;;;;1.23;0.80;;;;;23.30;101267.00;;;;2077710;28;20217;-57
2022/06/14 00:25:21;;;;;;;1.33;0.93;;;;;23.30;101258.00;;;;2069364;28;20761;-55
2022/06/14 00:26:21;;;;;;;1.20;0.77;;;;;23.30;101265.00;;;;2063320;28;20224;-57
2022/06/14 00:27:21;;;;;;;1.83;1.00;;;;;23.30;101258.00;;;;2065713;28;20213;-58
2022/06/14 00:28:23;;;;;;;1.23;0.63;;;;;23.30;101262.00;;;;2069306;28;20691;-58
2022/06/14 00:29:23;;;;;;;1.27;0.88;;;;;23.30;101265.00;;;;2069198;28;20227;-57
2022/06/14 00:30:24;;;;;;;2.20;1.00;;;;;23.30;101253.00;;;;2077640;28;20224;-58
2022/06/14 00:31:25;;;;;;;1.60;0.93;;;;;23.30;101262.00;;;;2077232;28;20221;-57
2022/06/14 00:32:25;;;;;;;2.30;0.90;;;;;23.30;101257.00;;;;2077654;28;20213;-58
2022/06/14 00:33:26;;;;;;;1.47;0.97;;;;;23.30;101264.00;;;;2072679;28;20229;-57
2022/06/14 00:34:26;;;;;;;1.30;0.80;;;;;23.30;101255.00;;;;2069374;28;20612;-58
2022/06/14 00:35:27;;;;;;;1.97;0.80;;;;;23.30;101261.00;;;;2068620;28;20265;-56
2022/06/14 00:36:32;;;;;;;1.70;0.87;;;;;23.30;101256.00;;;;2078429;28;20228;-58
2022/06/14 00:37:33;;;;;;;1.70;0.80;;;;;23.30;101263.00;;;;2069391;28;20221;-57
2022/06/14 00:38:34;;;;;;;1.97;1.00;;;;;23.30;101254.00;;;;2066965;28;20224;-56
2022/06/14 00:39:34;;;;;;;1.30;0.70;;;;;23.30;101267.00;;;;2069621;28;20702;-56
2022/06/14 00:40:35;;;;;;;1.97;0.93;;;;;23.30;101268.00;;;;2077745;28;20222;-56
2022/06/14 00:41:36;;;;;;;1.77;0.95;;;;;23.30;101280.00;;;;2078049;28;20716;-56
2022/06/14 00:42:37;;;;;;;1.55;0.80;;;;;23.30;101258.00;;;;2078355;28;20736;-56
2022/06/14 00:43:37;;;;;;;1.70;0.80;;;;;23.30;101258.00;;;;2077257;28;20217;-56
2022/06/14 00:44:38;;;;;;;1.77;0.90;;;;;23.30;101251.00;;;;2069045;28;20221;-56
2022/06/14 00:45:38;;;;;;;1.25;0.70;;;;;23.30;101260.00;;;;2077072;28;20221;-57
2022/06/14 00:46:55;;;;;;;1.67;0.80;;;;;23.30;101242.00;;;;2078106;28;20218;-57
2022/06/14 00:48:06;;;;;;;1.33;1.00;;;;;23.30;101254.00;;;;2077324;28;20756;-58
2022/06/14 00:49:15;;;;;;;1.73;0.80;;;;;23.30;101244.00;;;;2077628;28;20641;-57
2022/06/14 00:50:20;;;;;;;1.73;0.80;;;;;23.30;101242.00;;;;2069639;28;20671;-57
2022/06/14 00:51:23;;;;;;;1.40;0.77;;;;;23.30;101254.00;;;;2069795;28;20222;-58
2022/06/14 00:52:38;;;;;;;1.20;0.70;;;;;23.30;101243.00;;;;2067853;28;20998;-60
2022/06/14 00:53:52;;;;;;;1.30;0.90;;;;;23.30;101248.00;;;;2070598;28;20229;-56
2022/06/14 00:54:56;;;;;;;1.52;0.80;;;;;23.30;101251.00;;;;2070100;28;20244;-57
2022/06/14 00:56:00;;;;;;;1.55;0.98;;;;;23.30;101248.00;;;;2058076;28;20215;-57
2022/06/14 00:57:11;;;;;;;1.15;0.73;;;;;23.30;101244.00;;;;2068596;28;20225;-57
2022/06/14 00:58:14;;;;;;;1.10;0.93;;;;;23.20;101253.00;;;;2069299;28;20222;-56
2022/06/14 00:59:17;;;;;;;1.17;0.75;;;;;23.20;101251.00;;;;2068247;28;20211;-55
2022/06/14 01:00:19;;;;;;;1.75;1.10;;;;;23.20;101242.00;;;;2068479;28;20224;-56
2022/06/14 01:01:22;;;;;;;1.50;0.90;;;;;23.20;101250.00;;;;2060699;28;20313;-55
2022/06/14 01:02:27;;;;;;;1.63;0.90;;;;;23.30;101245.00;;;;2057103;28;20222;-58
2022/06/14 01:03:35;;;;;;;2.35;0.75;;;;;23.20;101249.00;;;;2046615;28;20220;-56
2022/06/14 01:04:35;;;;;;;1.95;0.90;;;;;23.20;101243.00;;;;2060436;28;20761;-56
2022/06/14 01:06:07;;;;;;;1.03;0.80;;;;;23.20;101243.00;;;;2069670;28;20225;-58
2022/06/14 01:07:17;;;;;;;2.35;0.95;;;;;23.20;101229.00;;;;2073960;28;20237;-57
2022/06/14 01:08:17;;;;;;;1.58;0.90;;;;;23.20;101238.00;;;;2071549;28;20788;-56
2022/06/14 01:09:41;;;;;;;1.60;0.90;;;;;23.20;101235.00;;;;2070952;28;20229;-56
2022/06/14 01:10:43;;;;;;;1.27;0.80;;;;;23.20;101240.00;;;;2070376;28;20718;-60
2022/06/14 01:12:01;;;;;;;1.38;0.80;;;;;23.20;101236.00;;;;2062351;28;20214;-55
2022/06/14 01:13:02;;;;;;;2.78;0.77;;;;;23.20;101242.00;;;;2041573;28;20208;-55
2022/06/14 01:14:02;;;;;;;2.22;1.05;;;;;23.20;101239.00;;;;2038371;28;20212;-63
2022/06/14 01:15:10;;;;;;;1.57;0.80;;;;;23.20;101234.00;;;;2046701;28;20223;-59
2022/06/14 01:16:11;;;;;;;1.98;0.98;;;;;23.20;101241.00;;;;2055353;28;20657;-60
2022/06/14 01:17:12;;;;;;;1.40;0.90;;;;;23.20;101239.00;;;;2055023;28;20295;-59
2022/06/14 01:18:13;;;;;;;1.70;0.80;;;;;23.20;101240.00;;;;2061592;28;20217;-57
2022/06/14 01:19:21;;;;;;;1.10;0.90;;;;;23.20;101240.00;;;;2061483;28;20219;-57
2022/06/14 01:20:22;;;;;;;1.33;0.80;;;;;23.20;101242.00;;;;2069374;28;20215;-57
2022/06/14 01:21:23;;;;;;;1.40;0.80;;;;;23.20;101230.00;;;;2069315;28;20209;-58
2022/06/14 01:22:25;;;;;;;1.50;0.90;;;;;23.20;101245.00;;;;2070107;28;20269;-57
2022/06/14 01:23:25;;;;;;;1.23;0.88;;;;;23.20;101247.00;;;;2070223;28;20209;-57
2022/06/14 01:24:26;;;;;;;2.80;1.10;;;;;23.20;101237.00;;;;2061019;28;20223;-57
2022/06/14 01:25:29;;;;;;;1.17;0.90;;;;;23.20;101226.00;;;;2060155;28;20367;-58
2022/06/14 01:26:29;;;;;;;0.90;0.60;;;;;23.20;101237.00;;;;2060865;28;20707;-57
2022/06/14 01:27:31;;;;;;;1.57;0.80;;;;;23.20;101240.00;;;;2045249;28;20204;-59
2022/06/14 01:28:32;;;;;;;1.88;1.00;;;;;23.20;101249.00;;;;2060136;28;20707;-57
2022/06/14 01:29:33;;;;;;;2.60;0.90;;;;;23.20;101239.00;;;;2069401;28;20206;-57
2022/06/14 01:30:35;;;;;;;1.40;0.70;;;;;23.20;101244.00;;;;2069383;28;20218;-57
2022/06/14 01:31:35;;;;;;;1.77;0.85;;;;;23.20;101249.00;;;;2069298;28;20224;-56
2022/06/14 01:32:46;;;;;;;2.10;0.90;;;;;23.20;101246.00;;;;2060814;28;20217;-57
2022/06/14 01:33:49;;;;;;;2.03;0.88;;;;;23.20;101252.00;;;;2068945;28;20757;-58
2022/06/14 01:34:51;;;;;;;1.50;0.88;;;;;23.20;101235.00;;;;2062529;28;20276;-58
2022/06/14 01:35:54;;;;;;;1.45;0.95;;;;;23.20;101235.00;;;;2056711;28;20219;-55
2022/06/14 01:36:55;;;;;;;1.27;0.80;;;;;23.20;101249.00;;;;2069022;28;20667;-57
2022/06/14 01:37:56;;;;;;;1.30;0.90;;;;;23.20;101245.00;;;;2067811;28;20218;-58
2022/06/14 01:38:57;;;;;;;2.08;1.00;;;;;23.20;101243.00;;;;2060733;28;20213;-58
2022/06/14 01:39:58;;;;;;;2.28;1.00;;;;;23.20;101250.00;;;;2061353;28;20214;-57
2022/06/14 01:41:16;;;;;;;1.20;0.80;;;;;23.20;101255.00;;;;2059794;28;20645;-58
2022/06/14 01:42:31;;;;;;;1.50;0.95;;;;;23.20;101276.00;;;;2063617;28;20537;-58
2022/06/14 01:43:46;;;;;;;1.05;0.70;;;;;23.20;101254.00;;;;2064502;28;20229;-57
2022/06/14 01:44:54;;;;;;;1.42;1.00;;;;;23.20;101253.00;;;;2068636;28;20210;-58
2022/06/14 01:46:13;;;;;;;1.27;0.70;;;;;23.20;101252.00;;;;2068548;28;20218;-57
2022/06/14 01:47:20;;;;;;;2.25;1.10;;;;;23.20;101258.00;;;;2069209;28;20619;-57
2022/06/14 01:48:22;;;;;;;1.05;0.80;;;;;23.20;101256.00;;;;2069469;28;20300;-55
2022/06/14 01:52:58;;;;;;;1.45;0.57;;;;;23.20;101253.00;;;;2069272;28;20210;-58
2022/06/14 01:54:11;;;;;;;1.88;1.00;;;;;23.20;101248.00;;;;2070198;28;20218;-58
2022/06/14 01:55:27;;;;;;;3.13;1.20;;;;;23.20;101250.00;;;;2060755;28;20211;-57
2022/06/14 01:56:51;;;;;;;1.20;0.80;;;;;23.20;101251.00;;;;2057755;28;20222;-57
2022/06/14 01:57:57;;;;;;;1.50;0.90;;;;;23.20;101250.00;;;;2064745;28;20218;-58
2022/06/14 01:59:19;;;;;;;1.48;0.90;;;;;23.20;101252.00;;;;2062004;28;20238;-58
2022/06/14 02:00:31;;;;;;;1.58;0.80;;;;;23.20;101243.00;;;;2069604;28;20232;-57
2022/06/14 02:01:57;;;;;;;1.20;0.88;;;;;23.20;101244.00;;;;2060857;28;20221;-57
2022/06/14 02:04:45;;;;;;;1.10;0.85;;;;;23.10;101244.00;;;;2060554;28;20775;-58
2022/06/14 02:05:53;;;;;;;1.90;0.82;;;;;23.20;101235.00;;;;2064068;28;20214;-57
2022/06/14 02:07:07;;;;;;;1.58;0.85;;;;;23.00;101235.00;;;;2062211;28;20211;-58
2022/06/14 02:08:19;;;;;;;2.10;0.90;;;;;23.20;101238.00;;;;2069001;28;20806;-58
2022/06/14 02:09:29;;;;;;;1.38;0.90;;;;;23.20;101241.00;;;;2054896;28;20224;-58
2022/06/14 02:11:04;;;;;;;1.35;0.90;;;;;23.20;101245.00;;;;2055643;28;20770;-58
2022/06/14 02:12:05;;;;;;;2.65;0.82;;;;;23.20;101239.00;;;;2058278;28;20896;-58
2022/06/14 02:13:15;;;;;;;1.23;0.77;;;;;23.20;101240.00;;;;2053411;28;20239;-58
2022/06/14 02:14:26;;;;;;;1.58;1.05;;;;;23.20;101236.00;;;;2063467;28;20541;-57
2022/06/14 02:15:42;;;;;;;2.08;1.08;;;;;23.20;101238.00;;;;2062921;28;20226;-58
2022/06/14 02:17:12;;;;;;;1.65;1.00;;;;;23.20;101235.00;;;;2061553;28;20219;-56
2022/06/14 02:18:20;;;;;;;1.52;0.75;;;;;23.20;101222.00;;;;2063682;28;20221;-57
2022/06/14 02:19:33;;;;;;;0.90;0.60;;;;;23.20;101233.00;;;;2064341;28;20661;-57
2022/06/14 02:20:38;;;;;;;1.35;0.80;;;;;23.20;101240.00;;;;2064265;28;20638;-56
2022/06/14 02:21:42;;;;;;;1.45;0.90;;;;;23.20;101234.00;;;;2062416;28;20243;-58
2022/06/14 02:22:45;;;;;;;1.55;0.80;;;;;23.20;101243.00;;;;2070667;28;20214;-56
2022/06/14 02:23:48;;;;;;;2.10;0.90;;;;;23.20;101240.00;;;;2077867;28;20232;-55
2022/06/14 02:25:07;;;;;;;1.70;0.90;;;;;23.20;101239.00;;;;2061672;28;20222;-55
2022/06/14 02:26:15;;;;;;;1.00;0.65;;;;;23.20;101232.00;;;;2063609;28;20214;-63
2022/06/14 02:27:29;;;;;;;1.60;0.80;;;;;23.20;101239.00;;;;2064971;28;20254;-58
2022/06/14 02:28:45;;;;;;;1.30;0.90;;;;;23.20;101234.00;;;;2064379;28;20288;-57
2022/06/14 02:30:10;;;;;;;1.10;0.68;;;;;23.20;101236.00;;;;2057846;28;20231;-57
2022/06/14 02:31:14;;;;;;;1.33;0.70;;;;;23.20;101237.00;;;;2060467;28;20701;-57
2022/06/14 02:32:49;;;;;;;2.85;1.25;;;;;23.10;101231.00;;;;2055841;28;20270;-57
2022/06/14 02:33:53;;;;;;;1.30;0.85;;;;;23.10;101231.00;;;;2060118;28;20234;-57
2022/06/14 02:35:03;;;;;;;0.93;0.77;;;;;23.10;101221.00;;;;2070291;28;20301;-57
2022/06/14 02:36:10;;;;;;;1.38;0.93;;;;;23.10;101229.00;;;;2055207;28;21104;-57
2022/06/14 02:37:16;;;;;;;1.02;0.90;;;;;23.10;101229.00;;;;2055462;28;20215;-57
2022/06/14 02:38:23;;;;;;;1.17;0.73;;;;;23.10;101229.00;;;;2039939;28;20220;-58
2022/06/14 02:39:26;;;;;;;1.30;0.80;;;;;23.10;101226.00;;;;2048283;28;20323;-57
2022/06/14 02:40:33;;;;;;;1.13;0.75;;;;;23.10;101223.00;;;;2052668;28;20589;-57
2022/06/14 02:41:58;;;;;;;1.50;0.85;;;;;23.10;101230.00;;;;2067730;28;20222;-56
2022/06/14 02:43:10;;;;;;;1.00;0.80;;;;;23.10;101226.00;;;;2078248;28;20232;-57
2022/06/14 02:44:15;;;;;;;1.90;0.82;;;;;23.10;101230.00;;;;2072026;28;20889;-56
2022/06/14 02:45:29;;;;;;;2.22;1.20;;;;;23.10;101233.00;;;;2078210;28;20217;-57
2022/06/14 02:46:37;;;;;;;1.13;0.70;;;;;23.10;101228.00;;;;2070541;28;20999;-57
2022/06/14 02:48:05;;;;;;;1.75;1.00;;;;;23.10;101229.00;;;;2071599;28;20222;-57
2022/06/14 02:49:19;;;;;;;1.50;0.90;;;;;23.10;101224.00;;;;2070629;28;20218;-58
2022/06/14 02:50:43;;;;;;;1.65;0.80;;;;;23.10;101229.00;;;;2074542;28;20242;-56
2022/06/14 02:51:53;;;;;;;1.35;0.85;;;;;23.10;101224.00;;;;2071298;28;20702;-59
2022/06/14 02:53:14;;;;;;;1.85;1.10;;;;;23.10;101218.00;;;;2065966;28;20300;-57
2022/06/14 02:54:42;;;;;;;1.58;0.90;;;;;23.10;101220.00;;;;2073375;28;20209;-57
2022/06/14 02:55:44;;;;;;;1.58;0.90;;;;;23.10;101211.00;;;;2074413;28;20213;-58
2022/06/14 02:56:50;;;;;;;1.52;0.80;;;;;23.10;101220.00;;;;2073012;28;20214;-56
2022/06/14 02:57:54;;;;;;;1.17;0.80;;;;;23.10;101222.00;;;;2058821;28;20323;-59
2022/06/14 02:59:14;;;;;;;1.77;0.65;;;;;23.10;101214.00;;;;2063290;28;20211;-58
2022/06/14 03:00:20;;;;;;;1.60;0.98;;;;;23.10;101216.00;;;;2071432;28;20218;-58
2022/06/14 03:01:45;;;;;;;0.90;0.80;;;;;23.10;101222.00;;;;2063359;28;20226;-60
2022/06/14 03:02:51;;;;;;;1.20;0.80;;;;;23.10;101194.00;;;;2074557;28;20621;-56
2022/06/14 03:03:54;;;;;;;1.50;0.85;;;;;23.10;101222.00;;;;2064507;28;20217;-59
2022/06/14 03:04:59;;;;;;;1.33;0.80;;;;;23.10;101220.00;;;;2071753;28;20293;-57
2022/06/14 03:06:06;;;;;;;1.10;0.80;;;;;23.10;101210.00;;;;2072140;28;20297;-55
2022/06/14 03:07:10;;;;;;;2.08;1.00;;;;;23.10;101210.00;;;;2072494;28;20244;-61
2022/06/14 03:08:13;;;;;;;1.10;0.68;;;;;23.10;101211.00;;;;2062499;28;20211;-59
2022/06/14 03:09:16;;;;;;;1.10;0.85;;;;;23.10;101213.00;;;;2056312;28;20801;-57
2022/06/14 03:10:16;;;;;;;1.35;0.70;;;;;23.10;101209.00;;;;2055892;28;20218;-56
2022/06/14 03:11:28;;;;;;;1.10;0.80;;;;;23.10;101218.00;;;;2071769;28;20228;-62
2022/06/14 03:12:50;;;;;;;1.58;0.80;;;;;23.10;101222.00;;;;2080403;28;20221;-62
2022/06/14 03:14:02;;;;;;;1.10;0.70;;;;;23.10;101219.00;;;;2080263;28;20686;-57
2022/06/14 03:15:07;;;;;;;1.30;0.88;;;;;23.10;101216.00;;;;2079306;28;20213;-58
2022/06/14 03:16:13;;;;;;;1.30;0.70;;;;;23.10;101218.00;;;;2072073;28;20218;-56
2022/06/14 03:17:46;;;;;;;1.20;0.90;;;;;23.10;101220.00;;;;2079883;28;20209;-57
2022/06/14 03:18:59;;;;;;;1.80;0.80;;;;;23.10;101223.00;;;;2078521;28;20247;-57
2022/06/14 03:20:02;;;;;;;1.30;0.60;;;;;23.10;101234.00;;;;2064074;28;20235;-57
2022/06/14 03:21:18;;;;;;;1.65;0.90;;;;;23.10;101231.00;;;;2071997;28;20695;-56
2022/06/14 03:22:37;;;;;;;1.27;0.75;;;;;23.10;101230.00;;;;2070258;28;20232;-55
2022/06/14 03:23:56;;;;;;;1.02;0.70;;;;;23.10;101229.00;;;;2064183;28;20219;-60
2022/06/14 03:24:59;;;;;;;1.33;0.77;;;;;23.10;101227.00;;;;2078558;28;20300;-56
2022/06/14 03:26:21;;;;;;;1.80;0.93;;;;;23.10;101226.00;;;;2071020;28;20298;-60
2022/06/14 03:27:27;;;;;;;2.10;0.52;;;;;23.10;101231.00;;;;2057359;28;20238;-56
2022/06/14 03:28:36;;;;;;;1.00;0.68;;;;;23.10;101225.00;;;;2065657;28;20232;-55
2022/06/14 03:30:12;;;;;;;1.25;0.70;;;;;23.10;101227.00;;;;2071484;28;20723;-56
2022/06/14 03:31:14;;;;;;;0.90;0.70;;;;;23.10;101227.00;;;;2067988;28;20249;-57
2022/06/14 03:32:44;;;;;;;1.70;0.80;;;;;23.10;101223.00;;;;2063362;28;20296;-56
2022/06/14 03:33:47;;;;;;;1.02;0.70;;;;;23.10;101223.00;;;;2062732;28;20214;-57
2022/06/14 03:34:53;;;;;;;1.10;0.77;;;;;23.10;101221.00;;;;2071254;28;20277;-56
2022/06/14 03:35:53;;;;;;;1.45;0.88;;;;;23.10;101221.00;;;;2063104;28;20289;-59
2022/06/14 03:36:54;;;;;;;2.03;1.00;;;;;23.10;101220.00;;;;2063287;28;20226;-59
2022/06/14 03:37:54;;;;;;;1.77;0.93;;;;;23.10;101234.00;;;;2072240;28;20449;-59
2022/06/14 03:38:57;;;;;;;0.90;0.70;;;;;23.10;101219.00;;;;2072034;28;20218;-57
2022/06/14 03:40:07;;;;;;;1.20;0.70;;;;;23.10;101225.00;;;;2063208;28;20215;-56
2022/06/14 03:41:08;;;;;;;1.17;0.80;;;;;23.10;101233.00;;;;2056547;28;20229;-57
2022/06/14 03:42:09;;;;;;;1.70;0.80;;;;;23.00;101227.00;;;;2055797;28;20212;-62
2022/06/14 03:43:09;;;;;;;1.37;0.70;;;;;23.10;101228.00;;;;2071681;28;20225;-56
2022/06/14 03:44:09;;;;;;;1.87;0.90;;;;;23.10;101231.00;;;;2063140;28;20222;-56
2022/06/14 03:45:11;;;;;;;1.50;0.70;;;;;23.10;101224.00;;;;2054618;28;20324;-56
2022/06/14 03:46:15;;;;;;;1.20;0.80;;;;;23.10;101238.00;;;;2062982;28;20218;-60
2022/06/14 03:47:21;;;;;;;1.08;0.70;;;;;23.10;101231.00;;;;2070912;28;20261;-56
2022/06/14 03:48:22;;;;;;;1.33;0.80;;;;;23.10;101225.00;;;;2070214;28;20272;-56
2022/06/14 03:49:23;;;;;;;1.20;1.00;;;;;23.00;101219.00;;;;2055326;28;20291;-56
2022/06/14 03:50:30;;;;;;;0.98;0.70;;;;;23.10;101232.00;;;;2047364;28;20736;-57
2022/06/14 03:51:36;;;;;;;1.60;0.70;;;;;23.10;101222.00;;;;2064177;28;20572;-59
2022/06/14 03:53:03;;;;;;;0.80;0.60;;;;;23.10;101217.00;;;;2071915;28;20301;-56
2022/06/14 03:54:27;;;;;;;1.02;0.70;;;;;23.10;101231.00;;;;2071357;28;20736;-59
2022/06/14 03:55:36;;;;;;;1.30;1.00;;;;;23.10;101225.00;;;;2057915;28;20228;-59
2022/06/14 03:56:54;;;;;;;1.17;0.65;;;;;23.10;101222.00;;;;2058419;28;20708;-55
2022/06/14 03:58:00;;;;;;;1.83;0.95;;;;;23.10;101220.00;;;;2057639;28;20210;-56
2022/06/14 03:59:13;;;;;;;0.90;0.68;;;;;23.00;101214.00;;;;2065728;28;20214;-57
2022/06/14 04:00:37;;;;;;;1.27;0.80;;;;;23.10;101220.00;;;;2071321;28;20302;-57
2022/06/14 04:01:42;;;;;;;1.08;0.80;;;;;23.10;101219.00;;;;2049471;28;20239;-56
2022/06/14 04:02:57;;;;;;;1.23;0.88;;;;;23.00;101223.00;;;;2055544;28;20762;-56
2022/06/14 04:04:40;;;;;;;1.00;0.80;;;;;23.00;101221.00;;;;2065121;28;20215;-61
2022/06/14 04:05:54;;;;;;;1.42;0.90;;;;;23.10;101220.00;;;;2042659;29;20219;-58
2022/06/14 04:06:54;;;;;;;1.08;0.98;;;;;23.10;101215.00;;;;2059526;28;20249;-57
2022/06/14 04:08:13;;;;;;;1.10;0.70;;;;;23.10;101217.00;;;;2070923;28;20210;-56
2022/06/14 04:09:16;;;;;;;1.10;0.60;;;;;23.10;101215.00;;;;2070973;28;20289;-56
2022/06/14 04:10:31;;;;;;;0.95;0.70;;;;;23.00;101214.00;;;;2072302;28;20602;-56
2022/06/14 04:11:49;;;;;;;1.00;0.80;;;;;23.00;101215.00;;;;2079835;28;20287;-61
2022/06/14 04:12:56;;;;;;;1.48;0.90;;;;;23.00;101221.00;;;;2079353;28;20221;-55
2022/06/14 04:14:17;;;;;;;2.70;1.00;;;;;23.10;101215.00;;;;2072242;28;20294;-61
2022/06/14 04:15:34;;;;;;;1.40;0.90;;;;;23.10;101209.00;;;;2077924;28;20229;-58
2022/06/14 04:16:48;;;;;;;1.35;0.77;;;;;23.00;101213.00;;;;2067378;28;20300;-58
2022/06/14 04:18:34;;;;;;;1.25;0.85;;;;;23.10;101223.00;;;;2067388;28;20222;-61
2022/06/14 04:19:32;;;;;;;1.25;0.70;;;;;23.10;101218.00;;;;2075986;28;20224;-55
2022/06/14 04:20:36;;;;;;;1.23;0.95;;;;;23.00;101212.00;;;;2079607;28;20213;-60
2022/06/14 04:21:48;;;;;;;1.10;0.80;;;;;23.10;101219.00;;;;2071119;28;20217;-61
2022/06/14 04:22:53;;;;;;;1.45;0.77;;;;;23.10;101216.00;;;;2072877;28;20214;-61
2022/06/14 04:24:14;;;;;;;1.58;0.80;;;;;23.10;101216.00;;;;2078480;28;20271;-56
2022/06/14 04:25:48;;;;;;;1.02;0.80;;;;;23.10;101215.00;;;;2057326;28;20207;-58
2022/06/14 04:26:56;;;;;;;1.20;0.90;;;;;23.10;101211.00;;;;2059812;28;20222;-57
2022/06/14 04:28:01;;;;;;;1.35;0.82;;;;;23.00;101215.00;;;;2055023;28;20223;-55
2022/06/14 04:29:04;;;;;;;1.38;0.75;;;;;23.10;101215.00;;;;2055026;28;20226;-58
2022/06/14 04:30:25;;;;;;;1.17;0.70;;;;;23.10;101220.00;;;;2063045;28;20218;-55
2022/06/14 04:31:37;;;;;;;1.35;0.90;;;;;23.10;101227.00;;;;2062163;28;20349;-56
2022/06/14 04:32:43;;;;;;;1.20;0.80;;;;;23.10;101218.00;;;;2047843;28;20311;-62
2022/06/14 04:34:00;;;;;;;1.00;0.80;;;;;23.10;101221.00;;;;2054376;28;20616;-60
2022/06/14 04:35:11;;;;;;;0.82;0.70;;;;;23.10;101223.00;;;;2063699;28;20229;-55
2022/06/14 04:36:13;;;;;;;1.05;0.90;;;;;22.90;101214.00;;;;2067818;28;20221;-59
2022/06/14 04:37:17;;;;;;;1.13;0.80;;;;;23.10;101220.00;;;;2063076;28;20210;-59
2022/06/14 04:38:34;;;;;;;1.13;0.70;;;;;23.10;101219.00;;;;2054631;28;20749;-58
2022/06/14 04:39:37;;;;;;;1.20;0.80;;;;;23.10;101210.00;;;;2048938;28;20243;-56
2022/06/14 04:40:43;;;;;;;1.10;0.80;;;;;23.10;101220.00;;;;2055619;28;20219;-59
2022/06/14 04:41:45;;;;;;;1.10;0.70;;;;;23.10;101214.00;;;;2062399;28;20338;-61
2022/06/14 04:43:04;;;;;;;1.35;0.90;;;;;23.10;101218.00;;;;2061956;28;20203;-56
2022/06/14 04:44:21;;;;;;;1.77;0.70;;;;;23.10;101213.00;;;;2064008;28;20229;-56
2022/06/14 04:45:32;;;;;;;1.02;0.73;;;;;23.10;101215.00;;;;2063323;28;20203;-59
2022/06/14 04:46:52;;;;;;;1.30;0.95;;;;;23.10;101210.00;;;;2067365;28;20560;-54
2022/06/14 04:48:00;;;;;;;1.15;0.80;;;;;23.10;101220.00;;;;2049365;28;20234;-58
2022/06/14 04:49:13;;;;;;;1.10;0.75;;;;;23.10;101211.00;;;;2057979;28;20604;-60
2022/06/14 04:50:20;;;;;;;1.25;0.80;;;;;23.10;101215.00;;;;2062931;28;20326;-62
2022/06/14 04:51:33;;;;;;;1.08;0.60;;;;;23.10;101206.00;;;;2047763;28;20239;-60
2022/06/14 04:52:46;;;;;;;0.80;0.60;;;;;23.10;101210.00;;;;2053491;28;20891;-56
2022/06/14 04:54:05;;;;;;;1.00;0.80;;;;;23.10;101207.00;;;;2068324;28;20225;-58
2022/06/14 04:55:13;;;;;;;1.65;0.80;;;;;23.10;101213.00;;;;2051990;28;20226;-58
2022/06/14 04:56:18;;;;;;;1.05;0.63;;;;;23.10;101216.00;;;;2046416;28;20211;-57
2022/06/14 04:57:37;;;;;;;1.50;0.80;;;;;23.10;101221.00;;;;2060146;28;20207;-57
2022/06/14 04:58:42;;;;;;;1.00;0.70;;;;;23.10;101213.00;;;;2063455;28;20320;-54
2022/06/14 04:59:48;;;;;;;1.55;0.60;;;;;23.10;101213.00;;;;2069791;28;20202;-58
2022/06/14 05:00:57;;;;;;;1.42;0.90;;;;;23.10;101218.00;;;;2077669;28;20260;-55
2022/06/14 05:02:02;;;;;;;1.10;0.70;;;;;23.10;101215.00;;;;2070511;28;20222;-58
2022/06/14 05:03:16;;;;;;;1.10;0.70;;;;;23.10;101212.00;;;;2070972;28;20264;-58
2022/06/14 05:04:19;;;;;;;1.45;0.85;;;;;23.10;101211.00;;;;2071283;28;20268;-58
2022/06/14 05:05:27;;;;;;;1.38;0.80;;;;;23.10;101207.00;;;;2076967;28;20213;-57
2022/06/14 05:06:52;;;;;;;1.35;0.90;;;;;23.10;101204.00;;;;2078117;28;20209;-58
2022/06/14 05:07:56;;;;;;;1.27;0.98;;;;;23.10;101207.00;;;;2078012;28;20224;-56
2022/06/14 05:09:01;;;;;;;1.42;0.93;;;;;23.10;101196.00;;;;2069415;28;20213;-57
2022/06/14 05:10:06;;;;;;;1.17;0.90;;;;;23.10;101203.00;;;;2070330;28;20218;-58
2022/06/14 05:11:08;;;;;;;1.30;0.80;;;;;23.10;101204.00;;;;2077153;28;20217;-58
2022/06/14 05:12:29;;;;;;;1.40;0.80;;;;;23.10;101208.00;;;;2077807;28;20232;-58
2022/06/14 05:13:50;;;;;;;1.30;0.80;;;;;23.10;101209.00;;;;2077549;28;20214;-57
2022/06/14 05:14:53;;;;;;;1.40;0.95;;;;;23.10;101211.00;;;;2072081;28;20218;-58
2022/06/14 05:15:57;;;;;;;1.10;0.82;;;;;23.10;101219.00;;;;2059822;28;20840;-56
2022/06/14 05:17:01;;;;;;;1.35;0.70;;;;;23.10;101213.00;;;;2061985;28;20277;-55
2022/06/14 05:18:08;;;;;;;0.95;0.65;;;;;23.10;101210.00;;;;2061881;28;20218;-55
2022/06/14 05:19:11;;;;;;;0.77;0.50;;;;;23.10;101206.00;;;;2054378;28;20302;-58
2022/06/14 05:20:32;;;;;;;2.00;0.90;;;;;23.10;101223.00;;;;2061378;28;20572;-55
2022/06/14 05:21:45;;;;;;;1.42;0.90;;;;;23.10;101211.00;;;;2059077;28;20285;-58
2022/06/14 05:23:06;;;;;;;1.35;0.75;;;;;23.10;101210.00;;;;2060308;28;20225;-57
2022/06/14 05:24:06;;;;;;;1.35;0.80;;;;;23.10;101214.00;;;;2059669;28;20758;-58
2022/06/14 05:25:07;;;;;;;1.00;0.80;;;;;23.10;101205.00;;;;2053257;28;20219;-58
2022/06/14 05:26:07;;;;;;;0.90;0.70;;;;;23.10;101217.00;;;;2060344;28;20700;-59
2022/06/14 05:27:24;;;;;;;0.80;0.70;;;;;23.10;101212.00;;;;2069446;28;20225;-58
2022/06/14 05:28:38;;;;;;;1.60;0.90;;;;;23.10;101215.00;;;;2067896;28;20312;-58
2022/06/14 05:29:53;;;;;;;1.95;0.80;;;;;23.10;101224.00;;;;2069288;28;20575;-57
2022/06/14 05:30:59;;;;;;;0.98;0.70;;;;;23.10;101221.00;;;;2055819;28;20218;-58
2022/06/14 05:32:02;;;;;;;1.50;0.70;;;;;23.10;101226.00;;;;2068521;28;20222;-58
2022/06/14 05:33:03;;;;;;;1.10;0.80;;;;;23.10;101226.00;;;;2077575;28;20205;-58
2022/06/14 05:34:13;;;;;;;1.30;0.70;;;;;23.10;101221.00;;;;2078482;28;20214;-58
2022/06/14 05:35:19;;;;;;;1.70;0.80;;;;;23.10;101222.00;;;;2078173;28;20224;-57
2022/06/14 05:36:24;;;;;;;1.52;1.10;;;;;23.10;101217.00;;;;2078715;28;20217;-57
2022/06/14 05:37:55;;;;;;;1.45;0.93;;;;;23.10;101225.00;;;;2062662;28;20286;-56
2022/06/14 05:39:15;;;;;;;1.55;1.02;;;;;23.10;101231.00;;;;2067000;28;20210;-57
2022/06/14 05:40:25;;;;;;;1.67;0.90;;;;;23.10;101233.00;;;;2069558;28;20218;-55
2022/06/14 05:41:39;;;;;;;1.58;0.60;;;;;23.10;101236.00;;;;2055575;28;20618;-56
2022/06/14 05:42:52;;;;;;;1.00;0.70;;;;;23.20;101234.00;;;;2062984;28;20214;-56
2022/06/14 05:44:14;;;;;;;1.40;0.95;;;;;23.20;101234.00;;;;2079251;28;20209;-59
2022/06/14 05:45:17;;;;;;;1.20;0.80;;;;;23.20;101240.00;;;;2062553;28;20272;-58
2022/06/14 05:46:25;;;;;;;1.30;0.90;;;;;23.20;101237.00;;;;2055854;28;20273;-58